Mineola, TX (75773)

7:20 AM CDT on August 17, 2017 (GMT -0500)
Patten Street | | Change Station
Active Advisory: Flood Warning

Elev 443 ft 32.67 °N, 95.49 °W | Updated 9 seconds ago

Rain
Rain
74.3 °F
Feels Like 77 °F
N
0.4
Wind Variable Wind from NE
Gusts 2.5 mph

Today
High -- | Low -- °F
--% Chance of Precip.
Yesterday
High -- | Low -- °F
Precip. -- in
Pressure 30.06 in
Visibility 7.0 miles
Clouds Mostly Cloudy 1300 ft
Overcast 1800 ft
Heat Index 77 °F
Dew Point 43 °F
Humidity 33%
Rainfall 0.05 in
Snow Depth Not available.
6:47 AM 8:04 PM
Waning Crescent, 23% visible
METAR KJDD 171155Z AUTO 34013G17KT 7SM RA BKN013 OVC018 23/21 A3006 RMK AO2 LTG DSNT W AND NW
Pressure 30.06 in
Visibility 7.0 miles
Clouds Mostly Cloudy 1300 ft
Overcast 1800 ft
Heat Index 77 °F
Dew Point 43 °F
Humidity 33%
Rainfall 0.05 in
Snow Depth Not available.
6:47 AM 8:04 PM
Waning Crescent, 23% visible
METAR KJDD 171155Z AUTO 34013G17KT 7SM RA BKN013 OVC018 23/21 A3006 RMK AO2 LTG DSNT W AND NW

Get Your Daily Forecast Email!

Thanks for signing up!

Be on the lookout for a verification email in your inbox.

You'll start receiving severe weather alerts in your inbox..

×

10-Day Weather Forecast

Almanac

Astronomy

Aug. 17, 2017 Rise Set
Actual Time
Civil Twilight
Nautical Twilight
Astronomical Twilight
Moon
Length of Visible Light
Length of Day
Tomorrow will be .
, % of the Moon is Illuminated

Today's Extremes

State Highs State Lows

Community

WunderPhotos

Category 6

Welcome to Category 6. This is the collective home for Weather Underground's featured writeups by Dr. Jeff Masters (right), Bob Henson (left), Chris Burt, and other regular contributors.

Nearby

Air Quality

  Air Quality AQ Index Pollutant
Not available.

Snow Depth

Station Depth Elevation

Earthquake Activity

City Distance Mag. Time & Date
Minimum magnitude displayed is 2.5.

Coastal Water Temperatures

Place Temperature

Stations

Nearby Weather Stations

Station Location Temp. Windchill Dew Point Humidity Wind Precip. Elev Updated Type
                   

Watches & Warnings

Flood Warning
Issued: 10:59 AM CDT Aug. 16, 2017 – National Weather Service

... The Flood Warning extended until Friday morning... the Flood
Warning continues for
the Sabine River near Mineola, Texas
* until Friday morning... or until the warning is cancelled.
* At 1015 am Wednesday the stage was 15.3 feet.
* Minor flooding is occurring and minor flooding is forecast.
* Flood stage is 14 feet.
* Forecast... the river will continue rising to near 15.4 feet by this
Wednesday evening. The river will fall below flood stage Thursday
afternoon.
* Impact... at 16.0 feet... expect flooding of low river bottoms with
secondary roadways along with picnic and recreational areas
becoming inundated as well. Ranchers should move cattle and
equipment to higher ground.


Lat... Lon 3278 9574 3263 9535 3257 9535 3259 9550 3273 9574


Viii.